sensor_id;sensor_type;location;lat;lon;timestamp;P1;durP1;ratioP1;P2;durP2;ratioP2
23716;SDS011;22094;52.130;5.598;2023-02-28T00:00:11;10.77;;;5.75;;
23716;SDS011;22094;52.130;5.598;2023-02-28T00:02:42;13.95;;;6.10;;
23716;SDS011;22094;52.130;5.598;2023-02-28T00:05:09;9.75;;;5.70;;
23716;SDS011;22094;52.130;5.598;2023-02-28T00:07:36;8.90;;;5.05;;
23716;SDS011;22094;52.130;5.598;2023-02-28T00:10:03;11.82;;;5.45;;
23716;SDS011;22094;52.130;5.598;2023-02-28T00:12:31;8.40;;;5.35;;
23716;SDS011;22094;52.130;5.598;2023-02-28T00:14:57;8.48;;;5.30;;
23716;SDS011;22094;52.130;5.598;2023-02-28T00:17:22;8.52;;;4.88;;
23716;SDS011;22094;52.130;5.598;2023-02-28T00:19:48;8.02;;;5.18;;
23716;SDS011;22094;52.130;5.598;2023-02-28T00:22:18;10.82;;;5.00;;
23716;SDS011;22094;52.130;5.598;2023-02-28T00:24:45;7.75;;;4.82;;
23716;SDS011;22094;52.130;5.598;2023-02-28T00:27:12;7.40;;;4.70;;
23716;SDS011;22094;52.130;5.598;2023-02-28T00:29:38;8.52;;;4.55;;
23716;SDS011;22094;52.130;5.598;2023-02-28T00:32:04;9.35;;;4.93;;
23716;SDS011;22094;52.130;5.598;2023-02-28T00:34:30;6.57;;;4.05;;
23716;SDS011;22094;52.130;5.598;2023-02-28T00:37:02;8.80;;;4.55;;
23716;SDS011;22094;52.130;5.598;2023-02-28T00:39:31;7.28;;;4.07;;
23716;SDS011;22094;52.130;5.598;2023-02-28T00:42:01;8.15;;;4.28;;
23716;SDS011;22094;52.130;5.598;2023-02-28T00:44:28;7.90;;;3.83;;
23716;SDS011;22094;52.130;5.598;2023-02-28T00:46:54;8.10;;;4.25;;
23716;SDS011;22094;52.130;5.598;2023-02-28T00:49:21;7.72;;;4.10;;
23716;SDS011;22094;52.130;5.598;2023-02-28T00:51:47;7.63;;;4.53;;
23716;SDS011;22094;52.130;5.598;2023-02-28T00:54:12;6.72;;;3.97;;
23716;SDS011;22094;52.130;5.598;2023-02-28T00:56:38;7.75;;;4.05;;
23716;SDS011;22094;52.130;5.598;2023-02-28T00:59:04;8.35;;;4.25;;
23716;SDS011;22094;52.130;5.598;2023-02-28T01:01:29;8.38;;;4.55;;
23716;SDS011;22094;52.130;5.598;2023-02-28T01:03:55;5.90;;;3.80;;
23716;SDS011;22094;52.130;5.598;2023-02-28T01:06:21;4.68;;;3.85;;
23716;SDS011;22094;52.130;5.598;2023-02-28T01:08:47;7.03;;;3.92;;
23716;SDS011;22094;52.130;5.598;2023-02-28T01:11:13;8.77;;;4.00;;
23716;SDS011;22094;52.130;5.598;2023-02-28T01:13:41;9.43;;;4.43;;
23716;SDS011;22094;52.130;5.598;2023-02-28T01:16:07;6.18;;;3.72;;
23716;SDS011;22094;52.130;5.598;2023-02-28T01:18:33;7.38;;;4.00;;
23716;SDS011;22094;52.130;5.598;2023-02-28T01:21:03;8.38;;;3.45;;
23716;SDS011;22094;52.130;5.598;2023-02-28T01:23:33;6.50;;;3.88;;
23716;SDS011;22094;52.130;5.598;2023-02-28T01:26:05;5.60;;;3.88;;
23716;SDS011;22094;52.130;5.598;2023-02-28T01:28:31;7.25;;;4.38;;
23716;SDS011;22094;52.130;5.598;2023-02-28T01:30:57;6.65;;;4.00;;
23716;SDS011;22094;52.130;5.598;2023-02-28T01:33:23;9.05;;;3.97;;
23716;SDS011;22094;52.130;5.598;2023-02-28T01:35:48;7.40;;;4.30;;
23716;SDS011;22094;52.130;5.598;2023-02-28T01:38:14;7.60;;;3.83;;
23716;SDS011;22094;52.130;5.598;2023-02-28T01:40:40;5.63;;;3.80;;
23716;SDS011;22094;52.130;5.598;2023-02-28T01:45:49;6.97;;;4.13;;
23716;SDS011;22094;52.130;5.598;2023-02-28T01:48:15;6.03;;;4.07;;
23716;SDS011;22094;52.130;5.598;2023-02-28T01:50:43;5.53;;;3.78;;
23716;SDS011;22094;52.130;5.598;2023-02-28T01:53:13;7.20;;;3.75;;
23716;SDS011;22094;52.130;5.598;2023-02-28T01:55:42;5.65;;;4.00;;
23716;SDS011;22094;52.130;5.598;2023-02-28T01:58:12;7.13;;;4.07;;
23716;SDS011;22094;52.130;5.598;2023-02-28T02:00:38;6.10;;;3.90;;
23716;SDS011;22094;52.130;5.598;2023-02-28T02:03:09;6.55;;;4.18;;
23716;SDS011;22094;52.130;5.598;2023-02-28T02:05:37;6.50;;;4.78;;
23716;SDS011;22094;52.130;5.598;2023-02-28T02:08:05;6.45;;;3.70;;
23716;SDS011;22094;52.130;5.598;2023-02-28T02:10:44;8.32;;;4.32;;
23716;SDS011;22094;52.130;5.598;2023-02-28T02:24:11;9.20;;;4.45;;
23716;SDS011;22094;52.130;5.598;2023-02-28T02:29:34;6.93;;;4.18;;
23716;SDS011;22094;52.130;5.598;2023-02-28T02:35:03;5.97;;;4.18;;
23716;SDS011;22094;52.130;5.598;2023-02-28T02:37:48;5.82;;;4.53;;
23716;SDS011;22094;52.130;5.598;2023-02-28T02:40:26;6.72;;;4.40;;
23716;SDS011;22094;52.130;5.598;2023-02-28T02:43:13;6.07;;;3.95;;
23716;SDS011;22094;52.130;5.598;2023-02-28T02:45:59;6.43;;;4.00;;
23716;SDS011;22094;52.130;5.598;2023-02-28T02:48:31;11.88;;;5.57;;
23716;SDS011;22094;52.130;5.598;2023-02-28T02:51:01;8.23;;;4.40;;
23716;SDS011;22094;52.130;5.598;2023-02-28T02:53:37;8.27;;;4.53;;
23716;SDS011;22094;52.130;5.598;2023-02-28T02:56:25;8.27;;;4.35;;
23716;SDS011;22094;52.130;5.598;2023-02-28T02:58:54;8.25;;;4.70;;
23716;SDS011;22094;52.130;5.598;2023-02-28T03:01:25;7.22;;;4.15;;
23716;SDS011;22094;52.130;5.598;2023-02-28T03:03:55;7.20;;;4.35;;
23716;SDS011;22094;52.130;5.598;2023-02-28T03:06:23;5.85;;;4.50;;
23716;SDS011;22094;52.130;5.598;2023-02-28T03:08:49;10.30;;;4.70;;
23716;SDS011;22094;52.130;5.598;2023-02-28T03:11:15;5.70;;;4.38;;
23716;SDS011;22094;52.130;5.598;2023-02-28T03:19:42;7.25;;;4.38;;
23716;SDS011;22094;52.130;5.598;2023-02-28T03:22:56;6.30;;;4.47;;
23716;SDS011;22094;52.130;5.598;2023-02-28T03:25:12;8.05;;;4.97;;
23716;SDS011;22094;52.130;5.598;2023-02-28T03:27:54;6.97;;;4.45;;
23716;SDS011;22094;52.130;5.598;2023-02-28T03:30:42;8.13;;;4.43;;
23716;SDS011;22094;52.130;5.598;2023-02-28T03:33:34;5.93;;;4.18;;
23716;SDS011;22094;52.130;5.598;2023-02-28T03:36:04;8.63;;;5.00;;
23716;SDS011;22094;52.130;5.598;2023-02-28T03:38:41;7.10;;;4.90;;
23716;SDS011;22094;52.130;5.598;2023-02-28T03:41:27;6.03;;;4.50;;
23716;SDS011;22094;52.130;5.598;2023-02-28T03:44:03;11.02;;;5.00;;
23716;SDS011;22094;52.130;5.598;2023-02-28T03:46:33;7.53;;;5.30;;
23716;SDS011;22094;52.130;5.598;2023-02-28T03:49:03;6.97;;;5.15;;
23716;SDS011;22094;52.130;5.598;2023-02-28T03:51:51;8.52;;;5.57;;
23716;SDS011;22094;52.130;5.598;2023-02-28T03:54:31;10.77;;;5.70;;
23716;SDS011;22094;52.130;5.598;2023-02-28T03:57:06;9.35;;;5.40;;
23716;SDS011;22094;52.130;5.598;2023-02-28T03:59:42;9.68;;;4.90;;
23716;SDS011;22094;52.130;5.598;2023-02-28T04:02:12;6.60;;;4.72;;
23716;SDS011;22094;52.130;5.598;2023-02-28T04:04:37;8.45;;;5.38;;
23716;SDS011;22094;52.130;5.598;2023-02-28T04:07:04;6.55;;;4.72;;
23716;SDS011;22094;52.130;5.598;2023-02-28T04:09:32;9.43;;;5.13;;
23716;SDS011;22094;52.130;5.598;2023-02-28T04:11:58;10.52;;;4.30;;
23716;SDS011;22094;52.130;5.598;2023-02-28T04:14:23;6.75;;;4.78;;
23716;SDS011;22094;52.130;5.598;2023-02-28T04:16:49;5.90;;;4.20;;
23716;SDS011;22094;52.130;5.598;2023-02-28T04:19:16;8.80;;;4.18;;
23716;SDS011;22094;52.130;5.598;2023-02-28T04:21:43;5.82;;;4.05;;
23716;SDS011;22094;52.130;5.598;2023-02-28T04:24:13;6.55;;;4.28;;
23716;SDS011;22094;52.130;5.598;2023-02-28T04:26:44;7.03;;;4.30;;
23716;SDS011;22094;52.130;5.598;2023-02-28T04:29:12;5.45;;;4.40;;
23716;SDS011;22094;52.130;5.598;2023-02-28T04:31:42;6.53;;;4.00;;
23716;SDS011;22094;52.130;5.598;2023-02-28T04:34:08;7.97;;;4.20;;
23716;SDS011;22094;52.130;5.598;2023-02-28T04:36:33;5.05;;;4.00;;
23716;SDS011;22094;52.130;5.598;2023-02-28T04:38:59;5.57;;;3.63;;
23716;SDS011;22094;52.130;5.598;2023-02-28T04:41:25;5.18;;;3.80;;
23716;SDS011;22094;52.130;5.598;2023-02-28T04:43:51;6.03;;;4.07;;
23716;SDS011;22094;52.130;5.598;2023-02-28T04:46:18;4.25;;;3.78;;
23716;SDS011;22094;52.130;5.598;2023-02-28T04:48:43;5.45;;;3.95;;
23716;SDS011;22094;52.130;5.598;2023-02-28T04:51:10;4.25;;;3.83;;
23716;SDS011;22094;52.130;5.598;2023-02-28T04:53:37;5.00;;;3.75;;
23716;SDS011;22094;52.130;5.598;2023-02-28T04:56:04;5.07;;;4.00;;
23716;SDS011;22094;52.130;5.598;2023-02-28T04:58:31;6.65;;;3.92;;
23716;SDS011;22094;52.130;5.598;2023-02-28T05:03:42;5.05;;;3.95;;
23716;SDS011;22094;52.130;5.598;2023-02-28T05:06:08;4.80;;;3.63;;
23716;SDS011;22094;52.130;5.598;2023-02-28T05:08:35;5.68;;;4.25;;
23716;SDS011;22094;52.130;5.598;2023-02-28T05:11:01;6.15;;;4.10;;
23716;SDS011;22094;52.130;5.598;2023-02-28T05:13:27;6.10;;;4.35;;
23716;SDS011;22094;52.130;5.598;2023-02-28T05:15:53;6.05;;;4.30;;
23716;SDS011;22094;52.130;5.598;2023-02-28T05:18:19;6.15;;;3.92;;
23716;SDS011;22094;52.130;5.598;2023-02-28T05:20:45;5.82;;;4.20;;
23716;SDS011;22094;52.130;5.598;2023-02-28T05:23:11;5.85;;;4.10;;
23716;SDS011;22094;52.130;5.598;2023-02-28T05:25:38;5.72;;;4.05;;
23716;SDS011;22094;52.130;5.598;2023-02-28T05:28:04;5.97;;;4.10;;
23716;SDS011;22094;52.130;5.598;2023-02-28T05:30:30;5.13;;;3.90;;
23716;SDS011;22094;52.130;5.598;2023-02-28T05:32:56;5.68;;;3.88;;
23716;SDS011;22094;52.130;5.598;2023-02-28T05:35:23;4.72;;;4.07;;
23716;SDS011;22094;52.130;5.598;2023-02-28T05:37:49;10.05;;;4.40;;
23716;SDS011;22094;52.130;5.598;2023-02-28T05:40:15;7.20;;;4.25;;
23716;SDS011;22094;52.130;5.598;2023-02-28T05:42:41;5.68;;;4.13;;
23716;SDS011;22094;52.130;5.598;2023-02-28T05:45:06;7.68;;;4.57;;
23716;SDS011;22094;52.130;5.598;2023-02-28T05:47:33;7.20;;;4.70;;
23716;SDS011;22094;52.130;5.598;2023-02-28T05:49:58;7.57;;;5.32;;
23716;SDS011;22094;52.130;5.598;2023-02-28T05:52:25;10.93;;;5.57;;
23716;SDS011;22094;52.130;5.598;2023-02-28T05:54:50;9.50;;;6.40;;
23716;SDS011;22094;52.130;5.598;2023-02-28T05:57:16;9.30;;;6.55;;
23716;SDS011;22094;52.130;5.598;2023-02-28T05:59:41;10.98;;;5.50;;
23716;SDS011;22094;52.130;5.598;2023-02-28T06:02:14;7.95;;;4.85;;
23716;SDS011;22094;52.130;5.598;2023-02-28T06:04:41;8.65;;;5.30;;
23716;SDS011;22094;52.130;5.598;2023-02-28T06:07:07;6.15;;;4.55;;
23716;SDS011;22094;52.130;5.598;2023-02-28T06:09:33;6.20;;;4.88;;
23716;SDS011;22094;52.130;5.598;2023-02-28T06:12:00;6.78;;;4.07;;
23716;SDS011;22094;52.130;5.598;2023-02-28T06:14:31;6.60;;;4.50;;
23716;SDS011;22094;52.130;5.598;2023-02-28T06:16:58;5.80;;;4.03;;
23716;SDS011;22094;52.130;5.598;2023-02-28T06:19:25;7.05;;;3.70;;
23716;SDS011;22094;52.130;5.598;2023-02-28T06:21:51;7.15;;;4.32;;
23716;SDS011;22094;52.130;5.598;2023-02-28T06:24:18;7.20;;;4.68;;
23716;SDS011;22094;52.130;5.598;2023-02-28T06:26:48;5.18;;;4.38;;
23716;SDS011;22094;52.130;5.598;2023-02-28T06:29:13;8.15;;;4.30;;
23716;SDS011;22094;52.130;5.598;2023-02-28T06:31:44;7.43;;;4.38;;
23716;SDS011;22094;52.130;5.598;2023-02-28T06:34:10;6.20;;;4.45;;
23716;SDS011;22094;52.130;5.598;2023-02-28T06:36:39;6.30;;;4.18;;
23716;SDS011;22094;52.130;5.598;2023-02-28T06:39:05;7.70;;;4.88;;
23716;SDS011;22094;52.130;5.598;2023-02-28T06:41:32;7.97;;;4.70;;
23716;SDS011;22094;52.130;5.598;2023-02-28T06:44:02;5.93;;;4.63;;
23716;SDS011;22094;52.130;5.598;2023-02-28T06:46:39;6.15;;;4.82;;
23716;SDS011;22094;52.130;5.598;2023-02-28T06:49:06;5.88;;;4.70;;
23716;SDS011;22094;52.130;5.598;2023-02-28T06:51:34;6.88;;;4.35;;
23716;SDS011;22094;52.130;5.598;2023-02-28T06:54:00;9.02;;;4.25;;
23716;SDS011;22094;52.130;5.598;2023-02-28T06:56:25;7.00;;;4.60;;
23716;SDS011;22094;52.130;5.598;2023-02-28T06:58:51;6.75;;;4.25;;
23716;SDS011;22094;52.130;5.598;2023-02-28T07:01:21;5.70;;;4.18;;
23716;SDS011;22094;52.130;5.598;2023-02-28T07:03:50;7.13;;;4.60;;
23716;SDS011;22094;52.130;5.598;2023-02-28T07:06:18;7.57;;;5.20;;
23716;SDS011;22094;52.130;5.598;2023-02-28T07:08:44;9.13;;;4.50;;
23716;SDS011;22094;52.130;5.598;2023-02-28T07:11:10;8.57;;;4.95;;
23716;SDS011;22094;52.130;5.598;2023-02-28T07:13:36;5.93;;;4.55;;
23716;SDS011;22094;52.130;5.598;2023-02-28T07:16:02;5.70;;;4.75;;
23716;SDS011;22094;52.130;5.598;2023-02-28T07:18:30;5.88;;;4.45;;
23716;SDS011;22094;52.130;5.598;2023-02-28T07:20:56;7.50;;;4.80;;
23716;SDS011;22094;52.130;5.598;2023-02-28T07:23:22;5.43;;;4.90;;
23716;SDS011;22094;52.130;5.598;2023-02-28T07:25:49;5.97;;;5.05;;
23716;SDS011;22094;52.130;5.598;2023-02-28T07:28:15;7.47;;;5.22;;
23716;SDS011;22094;52.130;5.598;2023-02-28T07:30:41;7.15;;;4.82;;
23716;SDS011;22094;52.130;5.598;2023-02-28T07:33:07;10.60;;;4.80;;
23716;SDS011;22094;52.130;5.598;2023-02-28T07:35:33;6.13;;;5.22;;
23716;SDS011;22094;52.130;5.598;2023-02-28T07:37:59;6.93;;;5.45;;
23716;SDS011;22094;52.130;5.598;2023-02-28T07:40:26;8.95;;;5.30;;
23716;SDS011;22094;52.130;5.598;2023-02-28T07:42:51;6.30;;;5.38;;
23716;SDS011;22094;52.130;5.598;2023-02-28T07:45:17;7.30;;;4.97;;
23716;SDS011;22094;52.130;5.598;2023-02-28T07:47:43;11.57;;;5.30;;
23716;SDS011;22094;52.130;5.598;2023-02-28T07:50:10;13.73;;;5.65;;
23716;SDS011;22094;52.130;5.598;2023-02-28T07:52:38;7.50;;;5.10;;
23716;SDS011;22094;52.130;5.598;2023-02-28T07:55:05;6.93;;;5.40;;
23716;SDS011;22094;52.130;5.598;2023-02-28T07:57:32;7.32;;;5.55;;
23716;SDS011;22094;52.130;5.598;2023-02-28T07:59:57;6.00;;;5.28;;
23716;SDS011;22094;52.130;5.598;2023-02-28T08:02:24;7.07;;;5.25;;
23716;SDS011;22094;52.130;5.598;2023-02-28T08:04:49;9.25;;;5.70;;
23716;SDS011;22094;52.130;5.598;2023-02-28T08:07:15;6.88;;;5.40;;
23716;SDS011;22094;52.130;5.598;2023-02-28T08:09:42;7.03;;;4.40;;
23716;SDS011;22094;52.130;5.598;2023-02-28T08:12:08;6.40;;;4.38;;
23716;SDS011;22094;52.130;5.598;2023-02-28T08:14:35;6.97;;;4.50;;
23716;SDS011;22094;52.130;5.598;2023-02-28T08:17:01;6.80;;;4.63;;
23716;SDS011;22094;52.130;5.598;2023-02-28T08:19:28;5.18;;;4.28;;
23716;SDS011;22094;52.130;5.598;2023-02-28T08:21:54;4.65;;;4.10;;
23716;SDS011;22094;52.130;5.598;2023-02-28T08:24:20;5.32;;;4.18;;
23716;SDS011;22094;52.130;5.598;2023-02-28T08:26:46;5.65;;;3.90;;
23716;SDS011;22094;52.130;5.598;2023-02-28T08:29:12;5.88;;;4.53;;
23716;SDS011;22094;52.130;5.598;2023-02-28T08:31:38;5.97;;;3.78;;
23716;SDS011;22094;52.130;5.598;2023-02-28T08:34:10;5.68;;;3.75;;
23716;SDS011;22094;52.130;5.598;2023-02-28T08:36:37;6.22;;;3.95;;
23716;SDS011;22094;52.130;5.598;2023-02-28T08:39:03;6.53;;;3.83;;
23716;SDS011;22094;52.130;5.598;2023-02-28T08:41:30;3.80;;;3.20;;
23716;SDS011;22094;52.130;5.598;2023-02-28T08:43:55;3.95;;;3.03;;
23716;SDS011;22094;52.130;5.598;2023-02-28T08:46:22;5.78;;;3.08;;
23716;SDS011;22094;52.130;5.598;2023-02-28T08:48:51;4.15;;;2.88;;
23716;SDS011;22094;52.130;5.598;2023-02-28T08:51:17;2.40;;;2.20;;
23716;SDS011;22094;52.130;5.598;2023-02-28T08:53:47;3.17;;;2.00;;
23716;SDS011;22094;52.130;5.598;2023-02-28T08:56:14;3.03;;;1.95;;
23716;SDS011;22094;52.130;5.598;2023-02-28T08:58:41;2.13;;;1.80;;
23716;SDS011;22094;52.130;5.598;2023-02-28T09:01:15;1.90;;;1.65;;
23716;SDS011;22094;52.130;5.598;2023-02-28T09:03:45;2.33;;;1.80;;
23716;SDS011;22094;52.130;5.598;2023-02-28T09:06:12;1.73;;;1.63;;
23716;SDS011;22094;52.130;5.598;2023-02-28T09:08:39;2.53;;;1.77;;
23716;SDS011;22094;52.130;5.598;2023-02-28T09:11:05;2.08;;;1.58;;
23716;SDS011;22094;52.130;5.598;2023-02-28T09:13:32;1.60;;;1.50;;
23716;SDS011;22094;52.130;5.598;2023-02-28T09:15:59;1.70;;;1.60;;
23716;SDS011;22094;52.130;5.598;2023-02-28T09:18:27;1.40;;;1.30;;
23716;SDS011;22094;52.130;5.598;2023-02-28T09:20:53;1.60;;;1.50;;
23716;SDS011;22094;52.130;5.598;2023-02-28T09:23:19;2.17;;;1.80;;
23716;SDS011;22094;52.130;5.598;2023-02-28T09:25:46;2.25;;;1.60;;
23716;SDS011;22094;52.130;5.598;2023-02-28T09:28:13;2.00;;;1.80;;
23716;SDS011;22094;52.130;5.598;2023-02-28T09:30:45;2.78;;;2.08;;
23716;SDS011;22094;52.130;5.598;2023-02-28T09:33:13;5.97;;;2.53;;
23716;SDS011;22094;52.130;5.598;2023-02-28T09:35:39;2.00;;;1.90;;
23716;SDS011;22094;52.130;5.598;2023-02-28T09:38:05;2.28;;;2.08;;
23716;SDS011;22094;52.130;5.598;2023-02-28T09:40:34;2.47;;;2.03;;
23716;SDS011;22094;52.130;5.598;2023-02-28T09:43:25;2.88;;;2.20;;
23716;SDS011;22094;52.130;5.598;2023-02-28T09:46:02;2.10;;;1.90;;
23716;SDS011;22094;52.130;5.598;2023-02-28T09:48:38;2.88;;;2.13;;
23716;SDS011;22094;52.130;5.598;2023-02-28T09:51:16;3.08;;;1.98;;
23716;SDS011;22094;52.130;5.598;2023-02-28T09:53:47;1.65;;;1.52;;
23716;SDS011;22094;52.130;5.598;2023-02-28T09:56:24;3.88;;;1.70;;
23716;SDS011;22094;52.130;5.598;2023-02-28T09:58:59;1.70;;;1.60;;
23716;SDS011;22094;52.130;5.598;2023-02-28T10:06:59;2.00;;;1.48;;
23716;SDS011;22094;52.130;5.598;2023-02-28T10:09:42;2.70;;;1.75;;
23716;SDS011;22094;52.130;5.598;2023-02-28T10:12:08;2.05;;;1.88;;
23716;SDS011;22094;52.130;5.598;2023-02-28T10:14:36;1.75;;;1.50;;
23716;SDS011;22094;52.130;5.598;2023-02-28T10:17:28;3.67;;;1.70;;
23716;SDS011;22094;52.130;5.598;2023-02-28T10:20:07;2.65;;;1.77;;
23716;SDS011;22094;52.130;5.598;2023-02-28T10:22:41;1.80;;;1.70;;
23716;SDS011;22094;52.130;5.598;2023-02-28T10:25:32;1.88;;;1.77;;
23716;SDS011;22094;52.130;5.598;2023-02-28T10:28:10;1.60;;;1.50;;
23716;SDS011;22094;52.130;5.598;2023-02-28T10:30:37;2.90;;;1.70;;
23716;SDS011;22094;52.130;5.598;2023-02-28T10:33:31;3.55;;;2.05;;
23716;SDS011;22094;52.130;5.598;2023-02-28T10:35:56;2.40;;;1.67;;
23716;SDS011;22094;52.130;5.598;2023-02-28T10:38:23;2.00;;;1.80;;
23716;SDS011;22094;52.130;5.598;2023-02-28T10:40:57;1.92;;;1.70;;
23716;SDS011;22094;52.130;5.598;2023-02-28T10:43:29;2.53;;;2.00;;
23716;SDS011;22094;52.130;5.598;2023-02-28T10:46:17;2.53;;;1.80;;
23716;SDS011;22094;52.130;5.598;2023-02-28T10:48:57;2.40;;;2.00;;
23716;SDS011;22094;52.130;5.598;2023-02-28T10:51:37;2.65;;;1.63;;
23716;SDS011;22094;52.130;5.598;2023-02-28T10:54:04;3.65;;;1.90;;
23716;SDS011;22094;52.130;5.598;2023-02-28T10:56:30;2.83;;;1.73;;
23716;SDS011;22094;52.130;5.598;2023-02-28T10:58:58;1.75;;;1.65;;
23716;SDS011;22094;52.130;5.598;2023-02-28T11:01:50;1.98;;;1.60;;
23716;SDS011;22094;52.130;5.598;2023-02-28T11:04:18;2.90;;;1.77;;
23716;SDS011;22094;52.130;5.598;2023-02-28T11:06:48;2.67;;;1.48;;
23716;SDS011;22094;52.130;5.598;2023-02-28T11:09:24;1.90;;;1.73;;
23716;SDS011;22094;52.130;5.598;2023-02-28T11:11:59;2.10;;;1.80;;
23716;SDS011;22094;52.130;5.598;2023-02-28T11:14:31;2.20;;;1.67;;
23716;SDS011;22094;52.130;5.598;2023-02-28T11:17:01;2.58;;;1.70;;
23716;SDS011;22094;52.130;5.598;2023-02-28T11:19:29;2.45;;;1.67;;
23716;SDS011;22094;52.130;5.598;2023-02-28T11:22:03;2.63;;;1.90;;
23716;SDS011;22094;52.130;5.598;2023-02-28T11:24:31;1.80;;;1.55;;
23716;SDS011;22094;52.130;5.598;2023-02-28T11:27:01;2.15;;;1.95;;
23716;SDS011;22094;52.130;5.598;2023-02-28T11:29:28;2.65;;;1.75;;
23716;SDS011;22094;52.130;5.598;2023-02-28T11:34:41;3.03;;;1.60;;
23716;SDS011;22094;52.130;5.598;2023-02-28T11:37:18;1.92;;;1.75;;
23716;SDS011;22094;52.130;5.598;2023-02-28T11:39:45;2.15;;;1.70;;
23716;SDS011;22094;52.130;5.598;2023-02-28T11:45:08;2.30;;;1.45;;
23716;SDS011;22094;52.130;5.598;2023-02-28T11:50:58;1.85;;;1.73;;
23716;SDS011;22094;52.130;5.598;2023-02-28T12:01:21;2.22;;;1.85;;
23716;SDS011;22094;52.130;5.598;2023-02-28T12:04:08;1.70;;;1.60;;
23716;SDS011;22094;52.130;5.598;2023-02-28T12:06:50;1.90;;;1.80;;
23716;SDS011;22094;52.130;5.598;2023-02-28T12:12:41;2.05;;;1.75;;
23716;SDS011;22094;52.130;5.598;2023-02-28T12:18:05;4.50;;;1.92;;
23716;SDS011;22094;52.130;5.598;2023-02-28T12:20:46;3.78;;;2.33;;
23716;SDS011;22094;52.130;5.598;2023-02-28T12:29:21;2.78;;;2.15;;
23716;SDS011;22094;52.130;5.598;2023-02-28T12:31:53;2.15;;;1.85;;
23716;SDS011;22094;52.130;5.598;2023-02-28T12:34:40;2.20;;;2.00;;
23716;SDS011;22094;52.130;5.598;2023-02-28T12:37:55;3.83;;;2.00;;
23716;SDS011;22094;52.130;5.598;2023-02-28T12:40:13;2.60;;;2.20;;
23716;SDS011;22094;52.130;5.598;2023-02-28T12:42:49;2.60;;;2.40;;
23716;SDS011;22094;52.130;5.598;2023-02-28T12:45:52;3.10;;;2.15;;
23716;SDS011;22094;52.130;5.598;2023-02-28T12:48:29;3.95;;;2.25;;
23716;SDS011;22094;52.130;5.598;2023-02-28T12:51:02;2.20;;;2.00;;
23716;SDS011;22094;52.130;5.598;2023-02-28T12:53:52;2.15;;;1.85;;
23716;SDS011;22094;52.130;5.598;2023-02-28T12:56:38;2.58;;;2.35;;
23716;SDS011;22094;52.130;5.598;2023-02-28T12:59:39;3.97;;;2.05;;
23716;SDS011;22094;52.130;5.598;2023-02-28T13:02:45;2.63;;;2.17;;
23716;SDS011;22094;52.130;5.598;2023-02-28T13:11:07;2.25;;;2.05;;
23716;SDS011;22094;52.130;5.598;2023-02-28T13:14:03;2.35;;;2.15;;
23716;SDS011;22094;52.130;5.598;2023-02-28T13:20:19;2.53;;;2.05;;
23716;SDS011;22094;52.130;5.598;2023-02-28T13:25:04;2.42;;;2.22;;
23716;SDS011;22094;52.130;5.598;2023-02-28T13:28:13;2.78;;;2.47;;
23716;SDS011;22094;52.130;5.598;2023-02-28T13:31:00;3.35;;;2.38;;
23716;SDS011;22094;52.130;5.598;2023-02-28T13:33:34;3.25;;;2.22;;
23716;SDS011;22094;52.130;5.598;2023-02-28T13:36:08;2.50;;;2.10;;
23716;SDS011;22094;52.130;5.598;2023-02-28T13:38:38;1.90;;;1.80;;
23716;SDS011;22094;52.130;5.598;2023-02-28T13:44:06;2.67;;;2.47;;
23716;SDS011;22094;52.130;5.598;2023-02-28T13:51:50;3.95;;;2.42;;
23716;SDS011;22094;52.130;5.598;2023-02-28T13:57:02;3.47;;;2.40;;
23716;SDS011;22094;52.130;5.598;2023-02-28T13:59:45;2.47;;;2.28;;
23716;SDS011;22094;52.130;5.598;2023-02-28T14:05:06;2.72;;;2.38;;
23716;SDS011;22094;52.130;5.598;2023-02-28T14:07:41;2.55;;;2.35;;
23716;SDS011;22094;52.130;5.598;2023-02-28T14:10:26;2.25;;;2.13;;
23716;SDS011;22094;52.130;5.598;2023-02-28T14:12:59;2.25;;;2.05;;
23716;SDS011;22094;52.130;5.598;2023-02-28T14:18:14;2.53;;;2.10;;
23716;SDS011;22094;52.130;5.598;2023-02-28T14:20:49;2.88;;;2.58;;
23716;SDS011;22094;52.130;5.598;2023-02-28T14:23:26;3.35;;;2.40;;
23716;SDS011;22094;52.130;5.598;2023-02-28T14:32:21;2.50;;;2.20;;
23716;SDS011;22094;52.130;5.598;2023-02-28T14:34:55;2.35;;;2.13;;
23716;SDS011;22094;52.130;5.598;2023-02-28T14:37:44;2.60;;;2.03;;
23716;SDS011;22094;52.130;5.598;2023-02-28T14:40:17;4.68;;;2.25;;
23716;SDS011;22094;52.130;5.598;2023-02-28T14:42:56;2.65;;;2.40;;
23716;SDS011;22094;52.130;5.598;2023-02-28T14:45:24;2.50;;;2.30;;
23716;SDS011;22094;52.130;5.598;2023-02-28T14:47:53;2.45;;;2.17;;
23716;SDS011;22094;52.130;5.598;2023-02-28T14:50:20;2.20;;;2.00;;
23716;SDS011;22094;52.130;5.598;2023-02-28T14:52:46;2.55;;;2.35;;
23716;SDS011;22094;52.130;5.598;2023-02-28T14:55:14;3.75;;;2.30;;
23716;SDS011;22094;52.130;5.598;2023-02-28T14:57:53;2.35;;;2.15;;
23716;SDS011;22094;52.130;5.598;2023-02-28T15:00:27;3.38;;;2.17;;
23716;SDS011;22094;52.130;5.598;2023-02-28T15:02:54;2.35;;;2.15;;
23716;SDS011;22094;52.130;5.598;2023-02-28T15:05:38;3.88;;;2.30;;
23716;SDS011;22094;52.130;5.598;2023-02-28T15:08:16;2.40;;;2.20;;
23716;SDS011;22094;52.130;5.598;2023-02-28T15:10:49;4.03;;;2.10;;
23716;SDS011;22094;52.130;5.598;2023-02-28T15:13:43;3.33;;;2.17;;
23716;SDS011;22094;52.130;5.598;2023-02-28T15:16:15;2.92;;;2.63;;
23716;SDS011;22094;52.130;5.598;2023-02-28T15:18:54;2.45;;;2.10;;
23716;SDS011;22094;52.130;5.598;2023-02-28T15:21:38;1.95;;;1.80;;
23716;SDS011;22094;52.130;5.598;2023-02-28T15:24:08;2.63;;;2.10;;
23716;SDS011;22094;52.130;5.598;2023-02-28T15:26:45;2.55;;;1.95;;
23716;SDS011;22094;52.130;5.598;2023-02-28T15:29:15;3.10;;;2.00;;
23716;SDS011;22094;52.130;5.598;2023-02-28T15:31:48;3.47;;;2.00;;
23716;SDS011;22094;52.130;5.598;2023-02-28T15:34:19;2.65;;;2.15;;
23716;SDS011;22094;52.130;5.598;2023-02-28T15:36:51;3.88;;;1.90;;
23716;SDS011;22094;52.130;5.598;2023-02-28T15:39:22;2.72;;;1.73;;
23716;SDS011;22094;52.130;5.598;2023-02-28T15:41:50;3.97;;;2.10;;
23716;SDS011;22094;52.130;5.598;2023-02-28T15:44:28;1.85;;;1.75;;
23716;SDS011;22094;52.130;5.598;2023-02-28T15:49:53;4.85;;;1.83;;
23716;SDS011;22094;52.130;5.598;2023-02-28T15:52:24;2.47;;;1.70;;
23716;SDS011;22094;52.130;5.598;2023-02-28T15:54:59;2.25;;;1.63;;
23716;SDS011;22094;52.130;5.598;2023-02-28T15:57:41;3.65;;;1.98;;
23716;SDS011;22094;52.130;5.598;2023-02-28T16:00:09;2.10;;;1.60;;
23716;SDS011;22094;52.130;5.598;2023-02-28T16:02:38;2.20;;;2.00;;
23716;SDS011;22094;52.130;5.598;2023-02-28T16:07:33;1.98;;;1.70;;
23716;SDS011;22094;52.130;5.598;2023-02-28T16:10:03;2.08;;;1.70;;
23716;SDS011;22094;52.130;5.598;2023-02-28T16:12:31;1.58;;;1.42;;
23716;SDS011;22094;52.130;5.598;2023-02-28T16:14:59;1.90;;;1.77;;
23716;SDS011;22094;52.130;5.598;2023-02-28T16:17:31;2.05;;;1.90;;
23716;SDS011;22094;52.130;5.598;2023-02-28T16:19:59;3.17;;;2.20;;
23716;SDS011;22094;52.130;5.598;2023-02-28T16:22:25;3.40;;;2.10;;
23716;SDS011;22094;52.130;5.598;2023-02-28T16:24:51;2.47;;;1.83;;
23716;SDS011;22094;52.130;5.598;2023-02-28T16:27:33;3.20;;;1.80;;
23716;SDS011;22094;52.130;5.598;2023-02-28T16:30:03;3.30;;;2.17;;
23716;SDS011;22094;52.130;5.598;2023-02-28T16:32:30;3.20;;;2.28;;
23716;SDS011;22094;52.130;5.598;2023-02-28T16:34:57;5.40;;;2.20;;
23716;SDS011;22094;52.130;5.598;2023-02-28T16:37:22;3.40;;;2.60;;
23716;SDS011;22094;52.130;5.598;2023-02-28T16:39:48;3.00;;;2.53;;
23716;SDS011;22094;52.130;5.598;2023-02-28T16:42:21;4.68;;;2.33;;
23716;SDS011;22094;52.130;5.598;2023-02-28T16:44:49;5.25;;;2.80;;
23716;SDS011;22094;52.130;5.598;2023-02-28T16:47:16;6.50;;;2.80;;
23716;SDS011;22094;52.130;5.598;2023-02-28T16:49:42;10.30;;;2.63;;
23716;SDS011;22094;52.130;5.598;2023-02-28T16:52:08;4.07;;;2.90;;